createdAt,value
2022-11-04T00:00:18.442Z,11.30
2022-11-04T00:02:46.973Z,11.30
2022-11-04T00:05:17.029Z,11.30
2022-11-04T00:08:02.747Z,11.20
2022-11-04T00:10:46.520Z,11.30
2022-11-04T00:13:14.915Z,11.20
2022-11-04T00:16:01.834Z,11.20
2022-11-04T00:18:30.648Z,11.20
2022-11-04T00:21:29.133Z,11.20
2022-11-04T00:24:16.129Z,11.20
2022-11-04T00:27:02.117Z,11.20
2022-11-04T00:29:31.827Z,11.30
2022-11-04T00:32:17.828Z,11.20
2022-11-04T00:34:46.242Z,11.10
2022-11-04T00:37:18.138Z,11.10
2022-11-04T00:39:46.720Z,11.10
2022-11-04T00:42:15.147Z,11.10
2022-11-04T00:44:43.411Z,11.00
2022-11-04T00:47:12.505Z,11.00
2022-11-04T00:49:40.923Z,11.00
2022-11-04T00:52:09.184Z,11.00
2022-11-04T00:54:38.755Z,10.90
2022-11-04T00:57:09.978Z,10.90
2022-11-04T00:59:41.062Z,10.90
2022-11-04T01:02:10.779Z,10.90
2022-11-04T01:04:39.448Z,10.90
2022-11-04T01:07:07.855Z,10.90
2022-11-04T01:09:36.316Z,11.00
2022-11-04T01:12:06.548Z,10.90
2022-11-04T01:14:34.860Z,10.90
2022-11-04T01:17:03.234Z,10.80
2022-11-04T01:19:31.452Z,10.80
2022-11-04T01:21:59.861Z,10.70
2022-11-04T01:24:28.539Z,10.70
2022-11-04T01:26:57.005Z,10.70
2022-11-04T01:29:26.874Z,10.80
2022-11-04T01:31:57.571Z,10.70
2022-11-04T01:34:25.748Z,10.70
2022-11-04T01:36:54.175Z,10.70
2022-11-04T01:39:22.430Z,10.70
2022-11-04T01:41:50.764Z,9.90
2022-11-04T01:44:49.889Z,10.70
2022-11-04T01:47:23.232Z,10.90
2022-11-04T01:49:55.166Z,10.90
2022-11-04T01:52:27.779Z,10.70
2022-11-04T01:55:03.971Z,10.60
2022-11-04T01:57:39.629Z,10.60
2022-11-04T02:00:12.331Z,10.70
2022-11-04T02:02:49.899Z,10.60
2022-11-04T02:05:18.952Z,10.70
2022-11-04T02:07:52.937Z,10.60
2022-11-04T02:10:24.545Z,10.60
2022-11-04T02:12:52.240Z,10.60
2022-11-04T02:15:31.660Z,10.60
2022-11-04T02:18:32.163Z,10.60
2022-11-04T02:21:37.393Z,10.60
2022-11-04T02:24:47.184Z,10.70
2022-11-04T02:27:25.238Z,10.70
2022-11-04T02:30:16.544Z,10.80
2022-11-04T02:33:06.662Z,10.60
2022-11-04T02:35:44.041Z,10.60
2022-11-04T02:38:19.733Z,10.70
2022-11-04T02:40:58.616Z,10.60
2022-11-04T02:43:33.950Z,10.50
2022-11-04T02:46:10.949Z,10.40
2022-11-04T02:48:45.490Z,10.40
2022-11-04T02:51:19.419Z,10.30
2022-11-04T02:53:52.383Z,10.30
2022-11-04T02:56:23.279Z,10.40
2022-11-04T02:58:56.117Z,10.30
2022-11-04T03:01:32.960Z,10.20
2022-11-04T03:04:07.698Z,10.10
2022-11-04T03:06:37.535Z,10.10
2022-11-04T03:09:06.250Z,10.00
2022-11-04T03:11:34.736Z,10.10
2022-11-04T03:14:07.097Z,10.10
2022-11-04T03:16:40.108Z,10.10
2022-11-04T03:19:16.142Z,10.10
2022-11-04T03:21:48.955Z,10.10
2022-11-04T03:24:17.236Z,10.00
2022-11-04T03:26:53.190Z,10.00
2022-11-04T03:29:27.541Z,10.00
2022-11-04T03:32:09.004Z,10.00
2022-11-04T03:34:38.514Z,10.00
2022-11-04T03:37:08.664Z,9.90
2022-11-04T03:39:37.004Z,9.90
2022-11-04T03:42:20.413Z,9.90
2022-11-04T03:44:50.899Z,9.80
2022-11-04T03:47:23.080Z,9.70
2022-11-04T03:49:53.454Z,9.60
2022-11-04T03:52:22.183Z,9.60
2022-11-04T03:54:50.395Z,9.50
2022-11-04T03:57:32.568Z,9.50
2022-11-04T04:00:09.265Z,9.50
2022-11-04T04:02:51.199Z,9.50
2022-11-04T04:05:23.376Z,9.50
2022-11-04T04:08:01.951Z,9.50
2022-11-04T04:10:40.600Z,9.40
2022-11-04T04:13:18.589Z,9.50
2022-11-04T04:15:51.795Z,9.40
2022-11-04T04:18:27.653Z,9.40
2022-11-04T04:20:57.541Z,9.40
2022-11-04T04:23:49.018Z,9.40
2022-11-04T04:26:38.006Z,9.40
2022-11-04T04:29:08.220Z,9.50
2022-11-04T04:31:51.124Z,9.50
2022-11-04T04:34:22.708Z,9.70
2022-11-04T04:36:57.158Z,9.80
2022-11-04T04:39:43.865Z,9.80
2022-11-04T04:42:29.950Z,9.80
2022-11-04T04:45:00.632Z,9.90
2022-11-04T04:47:38.687Z,9.80
2022-11-04T04:50:09.391Z,9.80
2022-11-04T04:52:40.709Z,9.80
2022-11-04T04:55:10.249Z,9.80
2022-11-04T04:57:38.624Z,9.80
2022-11-04T05:00:09.667Z,9.80
2022-11-04T05:02:37.762Z,9.50
2022-11-04T05:05:08.414Z,9.50
2022-11-04T05:07:36.542Z,9.40
2022-11-04T05:10:04.987Z,9.30
2022-11-04T05:12:54.392Z,9.10
2022-11-04T05:15:22.706Z,9.10
2022-11-04T05:17:55.653Z,9.10
2022-11-04T05:20:25.762Z,9.10
2022-11-04T05:22:55.098Z,9.10
2022-11-04T05:25:23.157Z,9.20
2022-11-04T05:27:53.275Z,9.40
2022-11-04T05:30:21.931Z,9.40
2022-11-04T05:32:50.035Z,9.30
2022-11-04T05:35:18.149Z,9.30
2022-11-04T05:37:49.792Z,9.40
2022-11-04T05:40:18.025Z,9.50
2022-11-04T05:42:46.261Z,9.40
2022-11-04T05:45:14.531Z,9.40
2022-11-04T05:47:42.577Z,9.10
2022-11-04T05:50:10.840Z,8.70
2022-11-04T05:52:38.907Z,8.80
2022-11-04T05:55:09.383Z,8.70
2022-11-04T05:57:38.297Z,8.60
2022-11-04T06:00:07.211Z,8.50
2022-11-04T06:02:35.357Z,8.70
2022-11-04T06:05:03.515Z,8.70
2022-11-04T06:07:34.211Z,8.90
2022-11-04T06:10:06.636Z,8.90
2022-11-04T06:12:36.056Z,8.80
2022-11-04T06:15:04.671Z,8.70
2022-11-04T06:17:32.759Z,8.70
2022-11-04T06:20:00.916Z,8.50
2022-11-04T06:22:29.151Z,8.40
2022-11-04T06:24:57.211Z,8.40
2022-11-04T06:27:32.002Z,8.40
2022-11-04T06:30:01.972Z,8.40
2022-11-04T06:32:30.336Z,8.50
2022-11-04T06:34:58.438Z,8.60
2022-11-04T06:37:27.617Z,8.70
2022-11-04T06:39:55.804Z,8.70
2022-11-04T06:42:25.856Z,8.80
2022-11-04T06:44:53.979Z,8.80
2022-11-04T06:47:25.602Z,8.80
2022-11-04T06:49:53.733Z,8.80
2022-11-04T06:52:21.777Z,8.80
2022-11-04T06:54:49.863Z,8.90
2022-11-04T06:57:18.103Z,8.90
2022-11-04T06:59:48.653Z,8.90
2022-11-04T07:02:19.817Z,9.00
2022-11-04T07:04:49.519Z,9.00
2022-11-04T07:07:17.664Z,9.00
2022-11-04T07:09:45.728Z,8.90
2022-11-04T07:12:15.907Z,8.90
2022-11-04T07:14:44.178Z,9.00
2022-11-04T07:17:12.307Z,9.20
2022-11-04T07:19:40.598Z,9.20
2022-11-04T07:22:10.252Z,9.10
2022-11-04T07:24:38.468Z,9.30
2022-11-04T07:27:07.741Z,9.40
2022-11-04T07:29:35.859Z,9.50
2022-11-04T07:32:03.927Z,9.50
2022-11-04T07:34:32.190Z,9.40
2022-11-04T07:37:00.397Z,9.40
2022-11-04T07:39:30.124Z,9.40
2022-11-04T07:41:59.615Z,9.40
2022-11-04T07:44:28.156Z,9.60
2022-11-04T07:46:56.658Z,9.60
2022-11-04T07:49:25.371Z,9.60
2022-11-04T07:51:53.830Z,9.70
2022-11-04T07:54:22.015Z,9.80
2022-11-04T07:56:51.733Z,9.80
2022-11-04T07:59:20.152Z,9.80
2022-11-04T08:01:48.378Z,9.80
2022-11-04T08:04:16.542Z,9.80
2022-11-04T08:06:44.679Z,9.80
2022-11-04T08:09:12.901Z,9.80
2022-11-04T08:11:41.176Z,9.70
2022-11-04T08:14:11.205Z,9.70
2022-11-04T08:16:39.259Z,9.70
2022-11-04T08:19:10.431Z,9.80
2022-11-04T08:21:38.634Z,9.70
2022-11-04T08:24:09.192Z,9.70
2022-11-04T08:26:39.777Z,9.70
2022-11-04T08:29:10.059Z,9.80
2022-11-04T08:31:38.582Z,9.80
2022-11-04T08:34:08.615Z,9.90
2022-11-04T08:36:53.428Z,9.90
2022-11-04T08:39:21.776Z,10.00
2022-11-04T08:41:53.673Z,10.10
2022-11-04T08:44:26.878Z,10.20
2022-11-04T08:46:55.312Z,10.20
2022-11-04T08:51:56.746Z,10.30
2022-11-04T08:54:28.335Z,10.30
2022-11-04T08:56:57.465Z,10.50
2022-11-04T08:59:26.995Z,10.40
2022-11-04T09:01:55.812Z,10.40
2022-11-04T09:04:25.127Z,10.40
2022-11-04T09:06:56.168Z,10.50
2022-11-04T09:09:25.379Z,10.50
2022-11-04T09:11:55.660Z,10.60
2022-11-04T09:14:24.447Z,10.60
2022-11-04T09:19:23.483Z,10.60
2022-11-04T09:21:51.811Z,10.60
2022-11-04T09:24:19.950Z,10.70
2022-11-04T09:26:48.269Z,11.00
2022-11-04T09:29:16.785Z,11.00
2022-11-04T09:31:44.879Z,10.90
2022-11-04T09:34:15.295Z,10.90
2022-11-04T09:36:51.181Z,11.10
2022-11-04T09:39:19.715Z,11.30
2022-11-04T09:42:11.046Z,11.40
2022-11-04T09:45:19.508Z,11.20
2022-11-04T09:47:42.645Z,11.30
2022-11-04T09:50:21.975Z,11.30
2022-11-04T09:52:56.069Z,11.10
2022-11-04T09:55:32.411Z,11.10
2022-11-04T10:00:35.915Z,11.00
2022-11-04T10:03:20.143Z,11.00
2022-11-04T10:06:00.740Z,11.00
2022-11-04T10:08:51.975Z,11.10
2022-11-04T10:11:28.203Z,11.20
2022-11-04T10:14:12.009Z,11.30
2022-11-04T10:16:55.551Z,11.20
2022-11-04T10:19:37.328Z,11.20
2022-11-04T10:22:19.276Z,11.30
2022-11-04T10:25:02.620Z,11.60
2022-11-04T10:27:35.667Z,11.50
2022-11-04T10:30:15.671Z,11.60
2022-11-04T10:32:59.732Z,11.50
2022-11-04T10:35:34.138Z,11.50
2022-11-04T10:38:18.546Z,11.40
2022-11-04T10:40:49.892Z,11.40
2022-11-04T10:43:25.482Z,11.40
2022-11-04T10:46:05.011Z,11.40
2022-11-04T10:48:39.326Z,11.40
2022-11-04T10:51:08.117Z,11.40
2022-11-04T10:53:37.755Z,11.50
2022-11-04T10:56:11.405Z,11.50
2022-11-04T10:58:46.281Z,11.60
2022-11-04T11:01:27.022Z,11.60
2022-11-04T11:03:55.840Z,11.70
2022-11-04T11:06:29.985Z,11.60
2022-11-04T11:09:12.975Z,11.40
2022-11-04T11:11:47.348Z,11.40
2022-11-04T11:14:21.158Z,11.40
2022-11-04T11:16:50.533Z,11.50
2022-11-04T11:19:21.765Z,11.50
2022-11-04T11:21:51.534Z,11.50
2022-11-04T11:24:24.162Z,11.50
2022-11-04T11:26:54.836Z,11.50
2022-11-04T11:29:26.198Z,11.40
2022-11-04T11:31:56.053Z,11.60
2022-11-04T11:34:27.988Z,11.60
2022-11-04T11:36:57.679Z,11.70
2022-11-04T11:39:31.759Z,11.70
2022-11-04T11:42:02.378Z,11.90
2022-11-04T11:44:36.937Z,12.00
2022-11-04T11:47:07.911Z,12.10
2022-11-04T11:49:38.080Z,12.10
2022-11-04T11:52:34.063Z,12.20
2022-11-04T11:55:08.732Z,12.10
2022-11-04T12:00:44.233Z,12.40
2022-11-04T12:03:21.860Z,12.50
2022-11-04T12:12:24.198Z,12.30
2022-11-04T12:15:04.223Z,12.40
2022-11-04T12:17:50.168Z,12.50
2022-11-04T12:20:37.177Z,12.40
2022-11-04T12:23:13.542Z,12.40
2022-11-04T12:25:49.609Z,12.50
2022-11-04T12:28:28.815Z,12.60
2022-11-04T12:31:10.536Z,12.50
2022-11-04T12:33:49.363Z,12.70
2022-11-04T12:36:33.402Z,12.60
2022-11-04T12:39:23.150Z,12.60
2022-11-04T12:45:02.186Z,12.30
2022-11-04T12:47:38.069Z,12.30
2022-11-04T12:50:52.263Z,12.20
2022-11-04T12:53:40.158Z,12.60
2022-11-04T12:56:12.149Z,12.60
2022-11-04T12:58:57.236Z,13.00
2022-11-04T13:01:33.926Z,13.00
2022-11-04T13:04:11.405Z,13.10
2022-11-04T13:06:44.755Z,13.00
2022-11-04T13:09:16.497Z,13.30
2022-11-04T13:11:52.476Z,13.30
2022-11-04T13:14:29.761Z,13.40
2022-11-04T13:17:05.101Z,13.20
2022-11-04T13:19:39.157Z,13.20
2022-11-04T13:22:12.005Z,12.90
2022-11-04T13:24:44.937Z,12.90
2022-11-04T13:27:20.272Z,12.80
2022-11-04T13:29:50.875Z,12.60
2022-11-04T13:32:28.886Z,12.60
2022-11-04T13:35:05.364Z,12.70
2022-11-04T13:37:39.578Z,12.80
2022-11-04T13:40:15.128Z,13.00
2022-11-04T13:43:30.869Z,13.40
2022-11-04T13:46:01.118Z,13.30
2022-11-04T13:48:34.793Z,13.20
2022-11-04T13:51:06.994Z,13.10
2022-11-04T13:53:47.772Z,12.80
2022-11-04T13:56:35.349Z,12.60
2022-11-04T13:59:23.260Z,12.70
2022-11-04T14:02:25.419Z,12.80
2022-11-04T14:04:56.326Z,13.00
2022-11-04T14:08:05.660Z,13.20
2022-11-04T14:10:45.567Z,12.80
2022-11-04T14:13:48.340Z,12.80
2022-11-04T14:16:42.480Z,12.70
2022-11-04T14:19:56.741Z,12.70
2022-11-04T14:22:39.548Z,12.60
2022-11-04T14:25:37.419Z,12.50
2022-11-04T14:28:21.254Z,12.60
2022-11-04T14:30:53.126Z,12.70
2022-11-04T14:33:42.167Z,12.70
2022-11-04T14:36:37.158Z,12.70
2022-11-04T14:39:25.544Z,12.80
2022-11-04T14:41:57.920Z,12.80
2022-11-04T14:44:33.029Z,12.90
2022-11-04T14:47:07.539Z,12.90
2022-11-04T14:49:41.760Z,12.80
2022-11-04T14:52:18.756Z,12.80
2022-11-04T14:54:50.192Z,12.80
2022-11-04T14:57:20.956Z,12.70
2022-11-04T14:59:52.148Z,12.50
2022-11-04T15:02:24.727Z,12.40
2022-11-04T15:04:58.653Z,12.30
2022-11-04T15:07:38.025Z,12.30
2022-11-04T15:10:27.635Z,12.40
2022-11-04T15:13:01.509Z,12.30
2022-11-04T15:15:37.530Z,12.30
2022-11-04T15:18:10.840Z,12.20
2022-11-04T15:20:46.200Z,12.20
2022-11-04T15:23:18.719Z,12.20
2022-11-04T15:25:50.163Z,12.30
2022-11-04T15:28:21.448Z,12.20
2022-11-04T15:31:06.606Z,12.20
2022-11-04T15:33:40.462Z,12.20
2022-11-04T15:36:14.127Z,12.10
2022-11-04T15:38:47.604Z,12.20
2022-11-04T15:41:39.283Z,12.10
2022-11-04T15:44:16.117Z,12.20
2022-11-04T15:46:51.132Z,12.20
2022-11-04T15:49:28.988Z,12.10
2022-11-04T15:52:01.058Z,12.10
2022-11-04T15:54:35.753Z,11.90
2022-11-04T15:57:14.265Z,11.80
2022-11-04T15:59:47.857Z,11.70
2022-11-04T16:02:25.702Z,11.70
2022-11-04T16:05:05.991Z,11.80
2022-11-04T16:07:39.571Z,11.40
2022-11-04T16:10:31.430Z,11.40
2022-11-04T16:13:03.035Z,11.40
2022-11-04T16:15:34.570Z,11.40
2022-11-04T16:18:04.331Z,11.40
2022-11-04T16:20:35.593Z,11.60
2022-11-04T16:23:04.721Z,11.60
2022-11-04T16:25:35.863Z,11.60
2022-11-04T16:28:06.147Z,11.50
2022-11-04T16:30:34.971Z,11.50
2022-11-04T16:33:11.845Z,11.40
2022-11-04T16:35:43.240Z,11.40
2022-11-04T16:38:11.833Z,11.40
2022-11-04T16:40:51.591Z,11.20
2022-11-04T16:43:22.850Z,11.10
2022-11-04T16:45:54.003Z,11.20
2022-11-04T16:48:24.652Z,11.30
2022-11-04T16:50:53.046Z,11.20
2022-11-04T16:53:21.084Z,11.20
2022-11-04T16:55:50.009Z,11.30
2022-11-04T16:58:20.757Z,11.20
2022-11-04T17:00:49.104Z,11.20
2022-11-04T17:03:21.651Z,11.10
2022-11-04T17:05:51.616Z,11.10
2022-11-04T17:08:23.729Z,11.00
2022-11-04T17:10:53.047Z,10.90
2022-11-04T17:13:23.317Z,10.90
2022-11-04T17:15:54.497Z,10.80
2022-11-04T17:20:54.693Z,10.60
2022-11-04T17:23:23.403Z,10.50
2022-11-04T17:25:52.980Z,10.50
2022-11-04T17:28:22.589Z,10.40
2022-11-04T17:30:51.268Z,10.50
2022-11-04T17:33:20.973Z,10.60
2022-11-04T17:35:51.386Z,10.60
2022-11-04T17:38:22.166Z,10.60
2022-11-04T17:41:07.823Z,10.70
2022-11-04T17:46:42.795Z,10.60
2022-11-04T17:49:14.571Z,10.60
2022-11-04T17:51:45.892Z,10.70
2022-11-04T17:54:14.424Z,10.70
2022-11-04T17:56:43.972Z,10.60
2022-11-04T17:59:14.737Z,10.60
2022-11-04T18:01:44.372Z,10.60
2022-11-04T18:04:15.477Z,10.50
2022-11-04T18:06:45.807Z,10.50
2022-11-04T18:09:15.172Z,10.50
2022-11-04T18:12:08.199Z,10.40
2022-11-04T18:17:06.961Z,10.30
2022-11-04T18:19:41.064Z,11.50
2022-11-04T18:22:11.073Z,10.20
2022-11-04T18:37:10.576Z,10.20
2022-11-04T18:39:41.846Z,10.00
2022-11-04T18:42:16.736Z,10.00
2022-11-04T18:47:15.716Z,10.00
2022-11-04T18:49:47.099Z,10.10
2022-11-04T18:52:15.591Z,10.00
2022-11-04T18:57:12.930Z,10.00
2022-11-04T18:59:42.352Z,10.00
2022-11-04T19:02:24.805Z,10.00
2022-11-04T19:05:02.368Z,10.00
2022-11-04T19:09:59.602Z,10.10
2022-11-04T19:12:47.184Z,10.30
2022-11-04T19:15:15.355Z,10.50
2022-11-04T19:20:15.199Z,10.70
2022-11-04T19:22:43.576Z,10.70
2022-11-04T19:27:41.248Z,10.90
2022-11-04T19:30:10.674Z,11.00
2022-11-04T19:35:10.054Z,11.00
2022-11-04T19:37:38.828Z,10.90
2022-11-04T19:43:00.186Z,10.60
2022-11-04T19:48:02.565Z,10.60
2022-11-04T19:53:02.004Z,10.50
2022-11-04T19:55:34.038Z,10.50
2022-11-04T19:58:03.495Z,10.50
2022-11-04T20:00:33.022Z,10.30
2022-11-04T20:05:38.247Z,10.10
2022-11-04T20:08:09.539Z,10.10
2022-11-04T20:10:40.345Z,10.10
2022-11-04T20:13:32.941Z,10.30
2022-11-04T20:16:01.578Z,10.30
2022-11-04T20:18:30.621Z,10.30
2022-11-04T20:21:04.378Z,10.20
2022-11-04T20:23:33.122Z,10.20
2022-11-04T20:26:08.184Z,10.30
2022-11-04T20:31:11.310Z,10.30
2022-11-04T20:33:40.524Z,10.50
2022-11-04T20:36:11.008Z,10.50
2022-11-04T20:38:40.195Z,10.60
2022-11-04T20:41:11.049Z,10.60
2022-11-04T20:43:39.618Z,10.60
2022-11-04T20:46:12.241Z,10.60
2022-11-04T20:51:13.469Z,10.70
2022-11-04T20:56:20.816Z,10.40
2022-11-04T21:01:31.039Z,10.40
2022-11-04T21:04:02.163Z,10.30
2022-11-04T21:06:32.472Z,10.00
2022-11-04T21:09:01.842Z,10.20
2022-11-04T21:14:01.190Z,10.40
2022-11-04T21:16:30.255Z,10.30
2022-11-04T21:21:28.849Z,10.40
2022-11-04T21:24:03.967Z,10.40
2022-11-04T21:26:36.193Z,10.50
2022-11-04T21:29:10.448Z,10.50
2022-11-04T21:31:39.635Z,10.60
2022-11-04T21:34:08.737Z,10.60
2022-11-04T21:36:37.427Z,10.50
2022-11-04T21:41:41.779Z,10.60
2022-11-04T21:44:13.802Z,10.50
2022-11-04T21:49:14.451Z,10.50
2022-11-04T21:51:42.669Z,10.40
2022-11-04T21:54:16.665Z,10.40
2022-11-04T21:56:46.707Z,10.40
2022-11-04T21:59:18.375Z,10.50
2022-11-04T22:04:16.592Z,10.40
2022-11-04T22:06:47.361Z,10.50
2022-11-04T22:09:17.446Z,10.50
2022-11-04T22:11:45.527Z,10.60
2022-11-04T22:14:14.867Z,10.50
2022-11-04T22:16:48.302Z,10.40
2022-11-04T22:19:22.896Z,10.30
2022-11-04T22:21:58.589Z,10.30
2022-11-04T22:24:34.114Z,10.30
2022-11-04T22:27:05.813Z,10.30
2022-11-04T22:29:36.464Z,10.20
2022-11-04T22:32:08.703Z,10.40
2022-11-04T22:34:39.114Z,10.40
2022-11-04T22:37:09.676Z,10.30
2022-11-04T22:39:42.315Z,10.20
2022-11-04T22:42:11.230Z,10.10
2022-11-04T22:44:40.945Z,10.10
2022-11-04T22:47:11.210Z,10.10
2022-11-04T22:49:42.515Z,10.20
2022-11-04T22:52:11.507Z,10.00
2022-11-04T22:54:41.294Z,10.00
2022-11-04T22:57:09.702Z,10.00
2022-11-04T22:59:38.333Z,10.10
2022-11-04T23:02:06.882Z,10.00
2022-11-04T23:04:35.406Z,10.00
2022-11-04T23:07:03.955Z,10.10
2022-11-04T23:09:33.698Z,10.00
2022-11-04T23:12:20.852Z,10.10
2022-11-04T23:15:06.849Z,10.10
2022-11-04T23:17:52.762Z,10.00
2022-11-04T23:20:23.183Z,10.00
2022-11-04T23:23:09.246Z,10.10
2022-11-04T23:25:37.867Z,10.20
2022-11-04T23:28:25.037Z,10.20
2022-11-04T23:30:53.621Z,10.20
2022-11-04T23:33:41.888Z,10.20
2022-11-04T23:36:28.261Z,10.30
2022-11-04T23:38:56.466Z,10.40
2022-11-04T23:41:42.560Z,10.50
2022-11-04T23:44:32.385Z,10.50
2022-11-04T23:52:50.217Z,10.50
2022-11-04T23:55:36.917Z,10.50
2022-11-04T23:58:23.143Z,10.40
